Time;durP1;ratioP1;P1;durP2;ratioP2;P2;SDS_P1;SDS_P2;PMS_P1;PMS_P2;Temp;Humidity;BMP_temperature;BMP_pressure;BME280_temperature;BME280_humidity;BME280_pressure;Samples;Min_cycle;Max_cycle;Signal;HPM_P1;HPM_P2
2023/01/20 00:01:37;;;;;;;40.05;15.80;;;2.40;99.90;;;;;;6053870;23;20026;-78
2023/01/20 00:04:04;;;;;;;29.00;12.32;;;2.40;99.90;;;;;;6080094;23;20456;-78
2023/01/20 00:06:35;;;;;;;28.95;12.20;;;2.50;99.90;;;;;;6056390;23;20022;-78
2023/01/20 00:09:04;;;;;;;35.88;16.17;;;2.30;99.90;;;;;;6075032;23;20064;-78
2023/01/20 00:11:32;;;;;;;39.25;16.13;;;2.40;99.90;;;;;;6080403;23;20073;-78
2023/01/20 00:14:02;;;;;;;31.27;14.13;;;2.30;99.90;;;;;;6103036;23;20018;-78
2023/01/20 00:16:30;;;;;;;23.98;10.80;;;1.60;99.90;;;;;;6061461;23;20493;-78
2023/01/20 00:18:58;;;;;;;26.00;10.60;;;2.40;99.90;;;;;;6057744;23;20019;-78
2023/01/20 00:21:26;;;;;;;23.48;10.75;;;2.80;99.90;;;;;;6103370;23;20026;-78
2023/01/20 00:23:56;;;;;;;20.83;9.13;;;2.20;99.90;;;;;;6082166;23;20023;-78
2023/01/20 00:26:24;;;;;;;23.52;10.32;;;2.60;99.90;;;;;;6079793;23;20018;-78
2023/01/20 00:28:59;;;;;;;23.05;10.48;;;2.50;99.90;;;;;;6055055;23;20046;-78
2023/01/20 00:31:31;;;;;;;22.80;10.45;;;2.50;99.90;;;;;;6074525;23;20054;-78
2023/01/20 00:33:59;;;;;;;22.90;11.05;;;2.40;99.90;;;;;;6078622;23;20443;-78
2023/01/20 00:36:31;;;;;;;26.95;11.20;;;2.40;99.90;;;;;;6078071;23;20068;-78
2023/01/20 00:39:01;;;;;;;26.02;11.77;;;2.50;99.90;;;;;;6054265;23;20043;-78
2023/01/20 00:41:29;;;;;;;23.48;10.88;;;2.60;99.90;;;;;;6079837;23;20153;-79
2023/01/20 00:43:57;;;;;;;27.02;12.02;;;2.30;99.90;;;;;;6076154;23;20029;-79
2023/01/20 00:46:25;;;;;;;28.02;11.85;;;2.30;99.90;;;;;;6072813;23;20038;-79
2023/01/20 00:48:53;;;;;;;23.02;10.32;;;2.60;99.90;;;;;;6073878;23;20034;-79
2023/01/20 00:51:20;;;;;;;25.83;12.40;;;2.40;99.90;;;;;;6073338;23;20046;-79
2023/01/20 00:53:48;;;;;;;23.13;10.40;;;2.40;99.90;;;;;;6079495;23;20026;-78
2023/01/20 00:56:16;;;;;;;21.67;10.77;;;2.50;99.90;;;;;;6075708;23;20109;-78
2023/01/20 00:58:46;;;;;;;24.38;10.73;;;2.30;99.90;;;;;;6077450;23;20033;-78
2023/01/20 01:01:14;;;;;;;25.27;9.65;;;2.30;99.90;;;;;;6105318;23;20037;-78
2023/01/20 01:03:44;;;;;;;22.73;9.85;;;2.40;99.90;;;;;;6080731;23;20083;-78
2023/01/20 01:06:14;;;;;;;25.55;10.18;;;2.40;99.90;;;;;;6110586;23;20025;-78
2023/01/20 01:08:43;;;;;;;22.98;9.52;;;2.70;99.90;;;;;;6109022;23;20045;-78
2023/01/20 01:11:12;;;;;;;20.80;10.02;;;2.40;99.90;;;;;;6109977;23;20029;-78
2023/01/20 01:13:41;;;;;;;21.75;9.30;;;2.50;99.90;;;;;;6085247;23;20022;-78
2023/01/20 01:16:13;;;;;;;24.52;9.57;;;2.30;99.90;;;;;;6107472;23;20053;-78
2023/01/20 01:18:42;;;;;;;;;;;2.40;99.90;;;;;;6111460;23;20101;-79
2023/01/20 01:21:12;;;;;;;24.30;9.18;;;2.40;99.90;;;;;;6110700;23;19976;-79
2023/01/20 01:23:42;;;;;;;27.05;9.73;;;2.50;99.90;;;;;;6107888;23;20093;-79
2023/01/20 01:26:10;;;;;;;25.58;10.00;;;2.50;99.90;;;;;;6131615;23;20020;-79
2023/01/20 01:28:38;;;;;;;25.45;9.75;;;1.50;99.90;;;;;;6106476;23;20022;-78
2023/01/20 01:31:07;;;;;;;27.60;10.43;;;2.40;99.90;;;;;;6081998;23;20030;-78
2023/01/20 01:33:35;;;;;;;25.98;10.93;;;2.50;99.90;;;;;;6100292;23;20021;-78
2023/01/20 01:36:07;;;;;;;23.20;9.75;;;2.40;99.90;;;;;;6129732;23;20022;-78
2023/01/20 01:38:35;;;;;;;24.00;9.73;;;2.10;99.90;;;;;;6128759;23;20340;-77
2023/01/20 01:41:02;;;;;;;26.45;10.98;;;2.40;99.90;;;;;;6107960;23;20014;-77
2023/01/20 01:43:35;;;;;;;29.25;11.07;;;1.90;99.90;;;;;;6128235;23;20026;-77
2023/01/20 01:46:04;;;;;;;26.63;10.85;;;2.40;99.90;;;;;;6127226;23;20018;-77
2023/01/20 01:48:45;;;;;;;25.52;10.90;;;2.40;99.90;;;;;;6102239;23;20021;-77
2023/01/20 01:51:24;;;;;;;25.63;10.52;;;2.40;99.90;;;;;;6105970;23;20010;-77
2023/01/20 01:54:05;;;;;;;27.58;10.82;;;2.50;99.90;;;;;;6104590;23;20014;-79
2023/01/20 01:56:35;;;;;;;27.80;11.07;;;2.40;99.90;;;;;;6078101;23;20069;-78
2023/01/20 01:59:03;;;;;;;27.35;10.02;;;2.40;99.90;;;;;;6080364;23;20029;-78
2023/01/20 02:01:37;;;;;;;24.65;10.00;;;2.40;99.90;;;;;;6108051;23;20089;-77
2023/01/20 02:04:16;;;;;;;22.80;9.10;;;1.40;99.90;;;;;;6109312;23;20085;-77
2023/01/20 02:06:48;;;;;;;23.15;9.52;;;1.90;99.90;;;;;;6110129;23;20014;-77
2023/01/20 02:09:18;;;;;;;26.52;11.55;;;2.30;99.90;;;;;;6109148;23;20021;-77
2023/01/20 02:11:50;;;;;;;24.48;9.50;;;2.70;99.90;;;;;;6131845;23;20018;-78
2023/01/20 02:14:48;;;;;;;47.00;21.50;;;2.30;99.90;;;;;;6107075;23;20021;-78
2023/01/20 02:17:28;;;;;;;39.55;16.50;;;2.20;99.90;;;;;;6115614;23;20026;-78
2023/01/20 02:20:17;;;;;;;22.63;10.25;;;1.50;99.90;;;;;;6109473;23;20026;-78
2023/01/20 02:23:07;;;;;;;23.15;9.95;;;2.40;99.90;;;;;;6081602;23;20369;-78
2023/01/20 02:25:49;;;;;;;22.55;9.38;;;2.40;99.90;;;;;;6082842;23;20033;-78
2023/01/20 02:28:54;;;;;;;28.10;11.95;;;2.40;99.90;;;;;;6087311;23;20006;-78
2023/01/20 02:31:26;;;;;;;22.20;9.20;;;2.40;99.90;;;;;;6081589;23;20022;-78
2023/01/20 02:34:02;;;;;;;22.35;8.73;;;2.70;99.90;;;;;;6130923;23;20022;-78
2023/01/20 02:36:54;;;;;;;24.48;9.43;;;2.40;99.90;;;;;;6131189;23;20033;-78
2023/01/20 02:39:34;;;;;;;20.98;8.38;;;2.00;99.90;;;;;;6108888;23;20044;-79
2023/01/20 02:42:15;;;;;;;24.10;11.15;;;2.30;99.90;;;;;;6111355;23;20052;-78
2023/01/20 02:45:19;;;;;;;23.27;8.82;;;2.30;99.90;;;;;;6106498;23;20028;-78
2023/01/20 02:48:09;;;;;;;;;;;2.20;99.90;;;;;;6102766;23;20026;-78
2023/01/20 02:50:51;;;;;;;23.60;9.60;;;2.30;99.90;;;;;;6139076;23;20329;-78
2023/01/20 02:53:25;;;;;;;21.73;9.48;;;2.30;99.90;;;;;;6085447;23;20021;-78
2023/01/20 02:55:54;;;;;;;20.42;8.75;;;2.30;99.90;;;;;;6136085;23;20525;-78
2023/01/20 02:58:29;;;;;;;21.13;8.15;;;2.30;99.90;;;;;;6085952;23;20022;-78
2023/01/20 03:01:30;;;;;;;26.08;10.68;;;2.30;99.90;;;;;;6110639;23;20112;-78
2023/01/20 03:04:00;;;;;;;19.55;7.75;;;2.30;99.90;;;;;;6164740;23;20018;-79
2023/01/20 03:06:39;;;;;;;24.20;8.70;;;2.30;99.90;;;;;;6140465;23;20485;-77
2023/01/20 03:09:13;;;;;;;20.33;7.95;;;2.50;99.90;;;;;;6145784;23;20072;-77
2023/01/20 03:11:49;;;;;;;20.77;8.32;;;2.20;99.90;;;;;;6147428;23;20028;-77
2023/01/20 03:14:19;;;;;;;21.88;9.85;;;2.50;99.90;;;;;;6143843;23;20037;-78
2023/01/20 03:16:49;;;;;;;25.15;9.60;;;2.30;99.90;;;;;;6122186;23;20088;-78
2023/01/20 03:19:19;;;;;;;21.65;9.40;;;2.40;99.90;;;;;;6146815;23;20237;-78
2023/01/20 03:21:48;;;;;;;17.90;8.10;;;2.20;99.90;;;;;;6173232;23;20066;-78
2023/01/20 03:24:17;;;;;;;22.30;8.27;;;2.40;99.90;;;;;;6123610;23;20048;-78
2023/01/20 03:26:48;;;;;;;20.73;8.10;;;2.40;99.90;;;;;;6129972;23;20017;-78
2023/01/20 03:29:17;;;;;;;17.77;7.57;;;2.40;99.90;;;;;;6124555;23;20080;-78
2023/01/20 03:31:53;;;;;;;20.17;7.93;;;2.40;99.90;;;;;;6150358;23;20013;-78
2023/01/20 03:34:39;;;;;;;20.83;7.55;;;2.40;99.90;;;;;;6117309;23;20022;-78
2023/01/20 03:37:10;;;;;;;21.20;9.13;;;2.40;99.90;;;;;;6146939;23;20143;-78
2023/01/20 03:39:38;;;;;;;22.23;9.48;;;2.30;99.90;;;;;;6123484;23;20033;-79
2023/01/20 03:42:15;;;;;;;19.67;8.20;;;2.50;99.90;;;;;;6125250;23;20041;-79
2023/01/20 03:45:04;;;;;;;22.63;8.25;;;2.50;99.90;;;;;;6143475;23;20073;-79
2023/01/20 03:48:16;;;;;;;19.15;7.88;;;2.30;99.90;;;;;;6150689;23;20030;-79
2023/01/20 03:51:08;;;;;;;23.60;8.85;;;2.40;99.90;;;;;;6082907;23;20042;-79
2023/01/20 03:53:50;;;;;;;20.50;7.75;;;2.20;99.90;;;;;;6061106;23;20093;-78
2023/01/20 03:56:25;;;;;;;19.13;8.15;;;2.00;99.90;;;;;;6088081;23;20071;-78
2023/01/20 03:58:58;;;;;;;20.50;8.50;;;2.30;99.90;;;;;;6061164;23;20045;-78
2023/01/20 04:01:38;;;;;;;24.58;8.68;;;2.30;99.90;;;;;;6089735;23;20076;-77
2023/01/20 04:04:13;;;;;;;19.58;8.15;;;2.20;99.90;;;;;;6059047;23;20075;-77
2023/01/20 04:06:44;;;;;;;17.48;6.95;;;2.30;99.90;;;;;;6063120;23;20034;-77
2023/01/20 04:09:32;;;;;;;18.15;7.72;;;2.30;99.90;;;;;;6079279;23;20023;-78
2023/01/20 04:12:00;;;;;;;17.17;7.60;;;1.30;99.90;;;;;;6082497;23;20031;-78
2023/01/20 04:14:27;;;;;;;19.45;8.23;;;2.40;99.90;;;;;;6059543;23;20019;-78
2023/01/20 04:16:58;;;;;;;15.80;7.28;;;2.40;99.90;;;;;;6059949;23;20022;-78
2023/01/20 04:19:26;;;;;;;17.15;7.38;;;2.40;99.90;;;;;;6082734;23;20609;-78
2023/01/20 04:22:16;;;;;;;17.25;6.88;;;2.40;99.90;;;;;;6059130;23;20359;-78
2023/01/20 04:24:58;;;;;;;16.75;7.30;;;2.40;99.90;;;;;;6056355;23;20026;-78
2023/01/20 04:27:27;;;;;;;18.70;7.32;;;2.20;99.90;;;;;;6085046;23;20026;-78
2023/01/20 04:29:59;;;;;;;18.45;7.35;;;3.20;99.90;;;;;;6107129;23;20018;-77
2023/01/20 04:32:26;;;;;;;18.17;7.15;;;2.30;99.90;;;;;;6115746;23;20020;-78
2023/01/20 04:34:54;;;;;;;15.00;7.00;;;2.30;99.90;;;;;;6149160;23;20028;-78
2023/01/20 04:37:22;;;;;;;18.20;7.70;;;2.40;99.90;;;;;;6163814;23;20032;-78
2023/01/20 04:39:53;;;;;;;18.52;7.43;;;2.30;99.90;;;;;;6145931;23;20017;-78
2023/01/20 04:42:20;;;;;;;18.95;8.13;;;1.60;99.90;;;;;;6114934;23;20038;-79
2023/01/20 04:44:49;;;;;;;16.98;6.45;;;1.10;99.90;;;;;;6140551;23;20022;-78
2023/01/20 04:47:16;;;;;;;16.48;7.00;;;2.20;99.90;;;;;;6115158;23;20049;-78
2023/01/20 04:49:44;;;;;;;18.60;7.97;;;2.20;99.90;;;;;;6113568;23;20024;-77
2023/01/20 04:52:12;;;;;;;20.35;8.88;;;2.30;99.90;;;;;;6115336;23;20040;-77
2023/01/20 04:54:45;;;;;;;21.48;8.63;;;2.20;99.90;;;;;;6114820;23;20029;-77
2023/01/20 04:57:14;;;;;;;18.38;8.52;;;2.10;99.90;;;;;;6090053;23;20034;-77
2023/01/20 04:59:42;;;;;;;19.27;7.90;;;2.30;99.90;;;;;;6113679;23;20021;-78
2023/01/20 05:02:10;;;;;;;17.98;7.93;;;2.20;99.90;;;;;;6088524;23;20022;-78
2023/01/20 05:04:41;;;;;;;20.00;7.95;;;2.20;99.90;;;;;;6095973;23;20057;-79
2023/01/20 05:07:11;;;;;;;19.42;8.43;;;2.40;99.90;;;;;;6075188;23;20023;-77
2023/01/20 05:09:43;;;;;;;18.77;7.22;;;2.30;99.90;;;;;;6030823;23;20064;-79
2023/01/20 05:12:17;;;;;;;19.17;7.20;;;2.10;99.90;;;;;;6056192;23;20027;-78
2023/01/20 05:14:45;;;;;;;16.15;6.75;;;2.30;99.90;;;;;;6001735;23;20019;-79
2023/01/20 05:17:12;;;;;;;19.25;7.40;;;2.30;99.90;;;;;;6022491;23;20023;-78
2023/01/20 05:19:42;;;;;;;15.23;6.78;;;2.30;99.90;;;;;;6071118;23;20027;-78
2023/01/20 05:22:10;;;;;;;16.65;7.25;;;2.20;99.90;;;;;;6077310;23;20015;-78
2023/01/20 05:24:58;;;;;;;17.38;8.15;;;2.10;99.90;;;;;;6052727;23;20019;-78
2023/01/20 05:27:29;;;;;;;16.88;8.07;;;2.30;99.90;;;;;;6056544;23;20038;-78
2023/01/20 05:29:57;;;;;;;16.58;6.72;;;2.20;99.90;;;;;;6140246;23;20017;-78
2023/01/20 05:32:25;;;;;;;18.30;6.75;;;2.60;99.90;;;;;;6137568;23;20048;-79
2023/01/20 05:34:52;;;;;;;16.75;6.68;;;2.30;99.90;;;;;;6155905;23;20071;-79
2023/01/20 05:37:19;;;;;;;17.83;7.72;;;2.30;99.90;;;;;;6174662;23;20330;-79
2023/01/20 05:39:47;;;;;;;18.33;8.90;;;2.30;99.90;;;;;;6148926;23;20057;-79
2023/01/20 05:42:14;;;;;;;18.42;7.57;;;2.30;99.90;;;;;;6125182;23;20014;-79
2023/01/20 05:44:42;;;;;;;18.85;7.53;;;2.30;99.90;;;;;;6150120;23;20025;-79
2023/01/20 05:47:09;;;;;;;19.13;8.00;;;2.30;99.90;;;;;;6149851;23;20021;-79
2023/01/20 05:49:36;;;;;;;25.25;9.77;;;2.30;99.90;;;;;;6126077;23;20097;-78
2023/01/20 05:52:04;;;;;;;21.15;9.13;;;2.30;99.90;;;;;;6123904;23;20048;-79
2023/01/20 05:54:31;;;;;;;21.13;9.25;;;2.30;99.90;;;;;;6148773;23;20591;-79
2023/01/20 05:56:59;;;;;;;18.58;8.80;;;3.30;99.90;;;;;;6125638;23;20061;-80
2023/01/20 05:59:26;;;;;;;23.40;9.40;;;2.30;99.90;;;;;;6125302;23;20029;-79
2023/01/20 06:01:54;;;;;;;23.52;10.63;;;2.30;99.90;;;;;;6101016;23;20061;-79
2023/01/20 06:04:25;;;;;;;19.63;8.18;;;2.30;99.90;;;;;;6125910;23;20131;-79
2023/01/20 06:06:52;;;;;;;17.63;7.85;;;2.30;99.90;;;;;;6150801;23;20032;-79
2023/01/20 06:09:20;;;;;;;23.27;9.32;;;2.30;99.90;;;;;;6126426;23;20025;-79
2023/01/20 06:11:49;;;;;;;20.88;10.38;;;2.30;99.90;;;;;;6101564;23;20379;-79
2023/01/20 06:14:17;;;;;;;22.95;10.13;;;1.40;99.90;;;;;;6151865;23;20024;-79
2023/01/20 06:16:44;;;;;;;21.67;8.60;;;2.30;99.90;;;;;;6124988;23;20513;-79
2023/01/20 06:19:12;;;;;;;21.55;9.50;;;2.30;99.90;;;;;;6101462;23;20457;-79
2023/01/20 06:21:40;;;;;;;22.50;10.30;;;2.40;99.90;;;;;;6153237;23;20021;-79
2023/01/20 06:24:13;;;;;;;25.80;10.80;;;2.30;99.90;;;;;;6128804;23;20013;-79
2023/01/20 06:26:40;;;;;;;27.00;10.43;;;2.30;99.90;;;;;;6100374;23;20491;-80
2023/01/20 06:29:07;;;;;;;23.40;10.63;;;2.40;99.90;;;;;;6126976;23;20020;-79
2023/01/20 06:31:35;;;;;;;18.83;8.10;;;1.70;99.90;;;;;;6101416;23;20080;-79
2023/01/20 06:34:11;;;;;;;19.65;9.07;;;2.30;99.90;;;;;;6075742;23;20018;-79
2023/01/20 06:36:39;;;;;;;23.50;9.07;;;2.30;99.90;;;;;;6098869;23;20029;-79
2023/01/20 06:39:07;;;;;;;24.40;9.68;;;2.40;99.90;;;;;;6096512;23;20025;-79
2023/01/20 06:41:34;;;;;;;18.25;7.45;;;2.40;99.90;;;;;;6099599;23;20069;-79
2023/01/20 06:44:02;;;;;;;21.77;9.57;;;2.40;99.90;;;;;;6075330;23;20065;-79
2023/01/20 06:46:29;;;;;;;25.20;10.10;;;2.40;99.90;;;;;;6098424;23;20024;-78
2023/01/20 06:48:59;;;;;;;21.55;8.40;;;2.40;99.90;;;;;;6097077;23;20022;-79
2023/01/20 06:51:28;;;;;;;25.83;9.48;;;2.50;99.90;;;;;;6097816;23;20010;-79
2023/01/20 06:53:57;;;;;;;21.75;9.25;;;2.50;99.90;;;;;;6096938;23;20021;-79
2023/01/20 06:56:24;;;;;;;22.70;9.15;;;2.40;99.90;;;;;;6099108;23;20402;-79
2023/01/20 06:58:52;;;;;;;24.02;11.00;;;2.50;99.90;;;;;;6097766;23;20014;-79
2023/01/20 07:01:22;;;;;;;26.00;9.77;;;2.50;99.90;;;;;;6073719;23;20476;-79
2023/01/20 07:03:50;;;;;;;19.73;8.88;;;2.40;99.90;;;;;;6074372;23;20049;-79
2023/01/20 07:06:29;;;;;;;20.00;9.68;;;2.50;99.90;;;;;;6124239;23;20028;-79
2023/01/20 07:08:59;;;;;;;23.10;9.15;;;2.20;99.90;;;;;;6099427;23;20014;-79
2023/01/20 07:11:27;;;;;;;24.75;10.18;;;2.50;99.90;;;;;;6073762;23;20077;-79
2023/01/20 07:13:55;;;;;;;25.45;10.10;;;2.50;99.90;;;;;;6122589;23;20041;-79
2023/01/20 07:16:22;;;;;;;23.20;9.18;;;2.60;99.90;;;;;;6072148;23;20489;-78
2023/01/20 07:18:50;;;;;;;24.48;10.43;;;2.50;99.90;;;;;;6098286;23;20026;-79
2023/01/20 07:21:19;;;;;;;24.70;9.98;;;2.60;99.90;;;;;;6096162;23;20026;-78
2023/01/20 07:23:48;;;;;;;24.55;9.63;;;2.60;99.90;;;;;;6101825;23;20020;-79
2023/01/20 07:26:25;;;;;;;24.67;10.93;;;2.60;99.90;;;;;;6073746;23;20022;-79
2023/01/20 07:28:52;;;;;;;23.75;9.77;;;2.60;99.90;;;;;;6097158;23;20446;-79
2023/01/20 07:31:35;;;;;;;27.35;12.38;;;2.60;99.90;;;;;;6061319;23;20081;-79
2023/01/20 07:34:03;;;;;;;26.70;12.45;;;2.60;99.90;;;;;;6127804;23;20080;-79
2023/01/20 07:36:30;;;;;;;25.00;10.82;;;2.60;99.90;;;;;;6123938;23;20326;-79
2023/01/20 07:38:58;;;;;;;26.63;10.55;;;2.60;99.90;;;;;;6103360;23;20021;-79
2023/01/20 07:41:26;;;;;;;27.38;12.52;;;2.70;99.90;;;;;;6152517;23;20045;-78
2023/01/20 07:43:53;;;;;;;24.90;10.85;;;2.70;99.90;;;;;;6126065;23;20017;-79
2023/01/20 07:46:21;;;;;;;22.98;9.80;;;2.00;99.90;;;;;;6130681;23;20021;-79
2023/01/20 07:48:49;;;;;;;23.58;9.65;;;2.70;99.90;;;;;;6125804;23;20096;-79
2023/01/20 07:51:17;;;;;;;24.95;11.23;;;2.70;99.90;;;;;;6125875;23;20049;-79
2023/01/20 07:53:46;;;;;;;22.27;9.68;;;2.80;99.90;;;;;;6103940;23;20109;-79
2023/01/20 07:56:23;;;;;;;25.35;10.10;;;2.60;99.90;;;;;;6151042;23;20022;-79
2023/01/20 07:58:51;;;;;;;23.48;10.68;;;2.70;99.90;;;;;;6101336;23;20053;-79
2023/01/20 08:01:21;;;;;;;24.95;10.55;;;3.00;99.90;;;;;;6101010;23;20128;-79
2023/01/20 08:03:49;;;;;;;25.40;9.52;;;2.80;99.90;;;;;;6150463;23;20442;-79
2023/01/20 08:06:20;;;;;;;24.80;12.40;;;2.70;99.90;;;;;;6147514;23;20021;-79
2023/01/20 08:08:48;;;;;;;25.00;10.57;;;2.80;99.90;;;;;;6096984;23;20018;-78
2023/01/20 08:11:18;;;;;;;29.83;11.48;;;2.80;99.90;;;;;;6100586;23;20450;-77
2023/01/20 08:13:45;;;;;;;23.92;9.27;;;2.80;99.90;;;;;;6099672;23;20448;-78
2023/01/20 08:16:15;;;;;;;27.90;10.27;;;2.60;99.90;;;;;;6150863;23;20353;-77
2023/01/20 08:18:43;;;;;;;29.40;10.25;;;2.90;99.90;;;;;;6126853;23;20448;-78
2023/01/20 08:21:25;;;;;;;20.90;8.88;;;3.10;99.90;;;;;;6097114;23;20033;-78
2023/01/20 08:23:55;;;;;;;23.43;10.53;;;2.90;99.90;;;;;;6123754;23;20021;-78
2023/01/20 08:26:26;;;;;;;27.45;11.43;;;2.90;99.90;;;;;;6122607;23;20021;-78
2023/01/20 08:28:54;;;;;;;21.63;9.13;;;2.90;99.90;;;;;;6099629;23;20022;-78
2023/01/20 08:31:23;;;;;;;23.42;10.48;;;2.90;99.90;;;;;;6100157;23;20324;-78
2023/01/20 08:33:55;;;;;;;27.70;12.05;;;3.00;99.90;;;;;;6124381;23;20105;-77
2023/01/20 08:40:07;;;;;;;22.08;9.77;;;3.00;99.90;;;;;;6124759;23;19948;31
2023/01/20 09:07:31;;;;;;;21.48;8.95;;;2.40;99.90;;;;;;6128238;23;20049;-79
2023/01/20 09:10:32;;;;;;;21.30;9.10;;;3.10;99.90;;;;;;6144588;23;20033;31
2023/01/20 09:19:21;;;;;;;30.27;12.82;;;3.10;99.90;;;;;;6144416;23;20005;-78
2023/01/20 11:45:46;;;;;;;15.70;7.35;;;3.20;99.90;;;;;;6205600;22;20035;-78
2023/01/20 11:49:21;;;;;;;16.27;6.80;;;3.10;99.90;;;;;;6220006;22;20031;-78
2023/01/20 11:52:43;;;;;;;15.38;6.75;;;3.10;99.90;;;;;;6247974;22;19996;-78
2023/01/20 11:55:59;;;;;;;11.88;6.18;;;3.10;99.90;;;;;;6152027;23;21011;31
2023/01/20 12:05:25;;;;;;;15.18;6.78;;;2.90;99.90;;;;;;6180515;22;20025;-77
2023/01/20 12:10:39;;;;;;;15.75;7.75;;;2.90;99.90;;;;;;6179496;23;20023;-78
2023/01/20 12:16:24;;;;;;;12.45;5.70;;;2.80;99.90;;;;;;6158470;23;20118;31
2023/01/20 12:43:50;;;;;;;18.00;8.55;;;2.70;99.90;;;;;;6160616;23;20214;31
2023/01/20 12:46:41;;;;;;;15.25;7.35;;;2.70;99.90;;;;;;6174325;23;20025;-79
2023/01/20 12:52:44;;;;;;;22.43;9.20;;;2.70;99.90;;;;;;6136473;23;20039;31
2023/01/20 12:55:32;;;;;;;24.38;10.25;;;2.70;99.90;;;;;;6125313;23;20046;-79
2023/01/20 13:34:02;;;;;;;18.10;7.90;;;2.80;99.90;;;;;;6085420;23;20041;31
2023/01/20 14:25:57;;;;;;;25.13;11.15;;;2.50;99.90;;;;;;6122722;23;20022;-79
2023/01/20 14:39:08;;;;;;;38.78;17.60;;;2.40;99.90;;;;;;6105379;23;20033;31
2023/01/20 14:52:26;;;;;;;45.50;23.40;;;2.40;99.90;;;;;;6099783;23;20128;31
2023/01/20 14:54:56;;;;;;;42.90;21.17;;;2.30;99.90;;;;;;6125733;23;20214;-79
2023/01/20 14:57:39;;;;;;;47.40;22.45;;;1.80;99.90;;;;;;6128819;23;20013;31
2023/01/20 15:13:30;;;;;;;46.97;19.65;;;1.80;99.90;;;;;;6100541;23;20836;31
2023/01/20 15:16:28;;;;;;;45.05;19.17;;;1.90;99.90;;;;;;6152020;23;20036;-83
2023/01/20 15:19:18;;;;;;;53.58;22.33;;;1.80;99.90;;;;;;6117757;23;20040;-83
2023/01/20 15:21:57;;;;;;;76.10;40.10;;;1.70;99.90;;;;;;6118858;23;20024;-83
2023/01/20 15:24:31;;;;;;;52.63;21.42;;;1.70;99.90;;;;;;6142004;23;20036;-82
2023/01/20 15:37:40;;;;;;;52.92;20.73;;;1.70;99.90;;;;;;6163732;22;20032;-79
2023/01/20 16:09:02;;;;;;;66.97;26.95;;;1.60;99.90;;;;;;6091129;23;20027;-83
2023/01/20 16:12:24;;;;;;;82.55;33.63;;;0.80;99.90;;;;;;6023714;23;20019;-81
2023/01/20 16:14:59;;;;;;;60.45;23.10;;;1.60;99.90;;;;;;6052270;23;20048;-82
2023/01/20 16:17:52;;;;;;;65.68;22.75;;;1.50;99.90;;;;;;6028139;23;20019;-82
2023/01/20 16:20:33;;;;;;;63.40;27.08;;;1.50;99.90;;;;;;5972425;24;20050;-82
2023/01/20 16:23:03;;;;;;;51.70;21.90;;;1.50;99.90;;;;;;5965610;24;20115;-82
2023/01/20 16:25:38;;;;;;;;;;;1.40;99.90;;;;;;5966544;24;20013;-82
2023/01/20 16:28:26;;;;;;;64.13;25.40;;;1.40;99.90;;;;;;5919510;24;19939;-81
2023/01/20 16:31:13;;;;;;;74.53;28.05;;;1.10;99.90;;;;;;5919936;24;20023;-82
2023/01/20 16:33:56;;;;;;;70.82;30.33;;;1.40;99.90;;;;;;5921059;24;20053;-82
2023/01/20 16:36:26;;;;;;;68.50;30.27;;;1.40;99.90;;;;;;5942597;24;20044;-80
2023/01/20 16:39:08;;;;;;;48.28;21.48;;;1.30;99.90;;;;;;5920788;24;20052;-81
2023/01/20 16:41:53;;;;;;;70.13;28.08;;;1.30;99.90;;;;;;5972408;24;20028;-81
2023/01/20 16:44:29;;;;;;;69.47;27.65;;;1.30;99.90;;;;;;5872351;24;20033;-81
2023/01/20 16:46:59;;;;;;;60.03;26.95;;;1.40;99.90;;;;;;5898882;24;20028;-81
2023/01/20 16:49:29;;;;;;;56.58;23.27;;;1.40;99.90;;;;;;5920868;24;20352;-81
2023/01/20 16:52:10;;;;;;;55.33;20.55;;;1.40;99.90;;;;;;5897328;24;20028;-81
2023/01/20 16:54:42;;;;;;;50.90;20.58;;;2.50;99.90;;;;;;5898750;24;20033;-81
2023/01/20 16:57:14;;;;;;;57.35;22.52;;;1.30;99.90;;;;;;5947956;24;20017;-80
2023/01/20 16:59:51;;;;;;;53.20;22.15;;;0.80;99.90;;;;;;5946650;24;20024;-80
2023/01/20 17:02:32;;;;;;;53.42;21.75;;;1.30;99.90;;;;;;5963410;23;20098;-81
2023/01/20 17:05:03;;;;;;;56.88;21.42;;;1.20;99.90;;;;;;5997661;24;20060;-79
2023/01/20 17:07:38;;;;;;;51.35;20.60;;;1.30;99.90;;;;;;5976985;24;20024;-80
2023/01/20 17:10:35;;;;;;;50.78;21.70;;;2.50;99.90;;;;;;5917726;24;20017;-80
2023/01/20 17:13:07;;;;;;;56.28;22.40;;;1.30;99.90;;;;;;5896121;24;20040;-81
2023/01/20 17:15:58;;;;;;;56.75;21.02;;;1.30;99.90;;;;;;5949246;24;20028;-81
2023/01/20 17:19:04;;;;;;;60.95;28.60;;;1.30;99.90;;;;;;5966798;24;20024;-80
2023/01/20 17:21:43;;;;;;;57.70;22.17;;;1.20;99.90;;;;;;5928962;24;20051;-80
2023/01/20 17:24:29;;;;;;;74.20;30.65;;;1.30;99.90;;;;;;5969809;24;20036;-80
2023/01/20 17:27:00;;;;;;;87.15;33.00;;;1.00;99.90;;;;;;5967964;24;20035;-80
2023/01/20 17:29:34;;;;;;;68.53;25.52;;;1.20;99.90;;;;;;5968430;24;20049;-81
2023/01/20 17:32:05;;;;;;;75.15;31.15;;;1.20;99.90;;;;;;5968997;24;20020;-80
2023/01/20 17:34:34;;;;;;;60.40;24.05;;;1.20;99.90;;;;;;5969000;24;20028;-80
2023/01/20 17:37:07;;;;;;;50.83;20.58;;;0.90;99.90;;;;;;5970150;24;20017;-80
2023/01/20 17:39:39;;;;;;;58.95;25.38;;;1.20;99.90;;;;;;5944307;24;20029;-81
2023/01/20 17:42:08;;;;;;;55.42;21.77;;;1.20;99.90;;;;;;5969775;24;20028;-80
2023/01/20 17:44:38;;;;;;;92.97;37.50;;;1.20;99.90;;;;;;5941121;24;20056;-80
2023/01/20 17:47:11;;;;;;;66.32;28.70;;;1.30;99.90;;;;;;5973138;24;20021;-81
2023/01/20 17:49:51;;;;;;;50.88;24.13;;;1.10;99.90;;;;;;5953479;24;20032;-81
2023/01/20 17:52:26;;;;;;;49.65;19.42;;;0.70;99.90;;;;;;5986053;23;20435;-80
2023/01/20 17:55:12;;;;;;;61.53;23.33;;;1.20;99.90;;;;;;6005289;23;20038;-80
2023/01/20 17:57:44;;;;;;;61.72;27.63;;;1.30;99.90;;;;;;6001341;23;20051;-81
2023/01/20 18:00:17;;;;;;;51.33;19.58;;;1.30;99.90;;;;;;6022360;23;20031;-80
2023/01/20 18:02:47;;;;;;;61.60;25.63;;;1.20;99.90;;;;;;5996704;23;20087;-80
2023/01/20 18:05:17;;;;;;;65.82;27.17;;;1.20;99.90;;;;;;6032571;23;20561;-81
2023/01/20 18:07:46;;;;;;;48.30;21.52;;;1.20;99.90;;;;;;6050244;23;20022;-81
2023/01/20 18:10:46;;;;;;;80.25;36.85;;;1.20;99.90;;;;;;6029555;23;20027;-80
2023/01/20 18:13:21;;;;;;;104.78;35.45;;;1.20;99.90;;;;;;5965850;24;20025;-81
2023/01/20 18:16:18;;;;;;;80.82;30.17;;;1.20;99.90;;;;;;5966912;24;20501;-82
2023/01/20 18:18:57;;;;;;;66.20;25.23;;;1.20;99.90;;;;;;5869407;24;20047;-81
2023/01/20 18:22:05;;;;;;;59.97;25.53;;;1.40;99.90;;;;;;5882797;24;20587;-80
2023/01/20 18:24:40;;;;;;;52.45;21.88;;;1.30;99.90;;;;;;5842324;24;20053;-81
2023/01/20 18:27:18;;;;;;;59.70;22.88;;;1.20;99.90;;;;;;5840251;24;20038;-82
2023/01/20 18:29:53;;;;;;;57.50;22.52;;;1.30;99.90;;;;;;5840465;24;20079;-81
2023/01/20 18:32:37;;;;;;;56.55;23.13;;;1.20;99.90;;;;;;5840910;24;20040;-81
2023/01/20 18:35:07;;;;;;;50.95;20.10;;;0.10;99.90;;;;;;5861704;24;20023;-82
2023/01/20 18:37:37;;;;;;;59.40;23.20;;;1.30;99.90;;;;;;5863492;24;20018;-82
2023/01/20 18:40:30;;;;;;;49.67;21.98;;;1.30;99.90;;;;;;5842013;24;20035;-81
2023/01/20 18:43:18;;;;;;;55.05;23.63;;;1.30;99.90;;;;;;5792707;24;20038;-82
2023/01/20 18:46:04;;;;;;;55.95;21.92;;;1.20;99.90;;;;;;5830580;24;20020;-82
2023/01/20 18:48:44;;;;;;;99.20;31.40;;;1.20;99.90;;;;;;5790820;24;20027;-82
2023/01/20 18:51:25;;;;;;;72.07;27.10;;;1.30;99.90;;;;;;5791340;24;20031;-82
2023/01/20 18:54:06;;;;;;;59.05;22.48;;;1.30;99.90;;;;;;5792750;24;20027;-83
2023/01/20 18:57:04;;;;;;;68.35;26.25;;;1.30;99.90;;;;;;5857103;24;20037;-81
2023/01/20 18:59:58;;;;;;;86.70;30.45;;;1.30;99.90;;;;;;5892714;24;20101;-83
2023/01/20 19:02:59;;;;;;;47.40;20.85;;;1.30;99.90;;;;;;5916664;24;20022;-82
2023/01/20 19:06:17;;;;;;;46.85;18.08;;;0.80;99.90;;;;;;5865412;24;20018;-82
2023/01/20 19:09:16;;;;;;;41.88;17.58;;;1.30;99.90;;;;;;5899851;24;20031;-82
2023/01/20 19:12:41;;;;;;;42.65;16.80;;;1.40;99.90;;;;;;5813810;24;20030;-83
2023/01/20 19:15:54;;;;;;;53.78;23.00;;;1.30;99.90;;;;;;5770164;24;20058;-82
2023/01/20 19:19:18;;;;;;;51.83;20.95;;;1.40;99.90;;;;;;5787685;24;20260;-83
2023/01/20 19:26:34;;;;;;;46.75;17.48;;;1.40;99.90;;;;;;5738982;24;20009;-85
2023/01/20 19:29:24;;;;;;;40.92;17.48;;;1.50;99.90;;;;;;5661653;25;20021;-83
2023/01/20 19:32:59;;;;;;;40.42;16.20;;;1.40;99.90;;;;;;5614942;25;20015;-85
2023/01/20 19:36:58;;;;;;;74.22;31.05;;;1.40;99.90;;;;;;5567332;25;20047;-84
2023/01/20 20:03:37;;;;;;;31.02;12.73;;;1.50;99.90;;;;;;6153905;23;20101;-85
2023/01/20 23:57:11;;;;;;;41.67;16.48;;;1.50;99.90;;;;;;6154111;23;20049;31
2023/01/20 23:59:40;;;;;;;37.72;14.73;;;1.50;99.90;;;;;;6130797;23;20002;-78
